N78AL EDDF-LDDU
Flight info
| Callsign | N78AL |
|---|---|
| Flight time | 1h 32m |
| Altitude | 39000 |
| Route | CINDY8S/18 CINDY Z74 LAMPU DCT NOMBO Y161 MAH DCT VAVOR DCT RADIZ DCT MODRO DCT DARZA DCT DEPET DCT UNIPA DCT SIPAL |
| Aircraft | CL60/M-SADE3FGHIJ3J4J7P2RWXY/HB1D1 |
Departure
| Time | 2026-05-06 16:18 |
|---|---|
| Airport | Frankfurt Main Airport (EDDF) |
Arrival
| Time | 2026-05-06 17:51 |
|---|---|
| Airport | Dubrovnik Ruđer Bošković Airport (LDDU) |
| Time | Latitude | Longitude | Altitude | Speed | Heading |
|---|---|---|---|---|---|
| 2026-05-06 15:47 | 50.04836 | 8.58581 | 369 ft | 0 kts | 160° |
| 2026-05-06 15:52 | 50.04823 | 8.58588 | 368 ft | 0 kts | 160° |
| 2026-05-06 16:00 | 50.04828 | 8.58585 | 368 ft | 2 kts | 160° |
| 2026-05-06 16:00 | 50.04841 | 8.58578 | 369 ft | 2 kts | 160° |
| 2026-05-06 16:00 | 50.04855 | 8.58570 | 370 ft | 2 kts | 160° |
| 2026-05-06 16:01 | 50.04869 | 8.58563 | 371 ft | 2 kts | 160° |
| 2026-05-06 16:01 | 50.04883 | 8.58555 | 372 ft | 2 kts | 160° |
| 2026-05-06 16:01 | 50.04897 | 8.58547 | 373 ft | 2 kts | 160° |
| 2026-05-06 16:01 | 50.04910 | 8.58540 | 373 ft | 1 kts | 172° |
| 2026-05-06 16:02 | 50.04921 | 8.58546 | 374 ft | 1 kts | 232° |
| 2026-05-06 16:02 | 50.04923 | 8.58555 | 373 ft | 0 kts | 251° |
| 2026-05-06 16:03 | 50.04919 | 8.58534 | 374 ft | 15 kts | 251° |
| 2026-05-06 16:04 | 50.04867 | 8.58318 | 378 ft | 20 kts | 250° |
| 2026-05-06 16:04 | 50.04814 | 8.58100 | 377 ft | 23 kts | 250° |
| 2026-05-06 16:04 | 50.04724 | 8.57912 | 371 ft | 22 kts | 233° |
| 2026-05-06 16:04 | 50.04671 | 8.57746 | 369 ft | 16 kts | 249° |
| 2026-05-06 16:05 | 50.04640 | 8.57615 | 368 ft | 13 kts | 250° |
| 2026-05-06 16:05 | 50.04605 | 8.57462 | 368 ft | 16 kts | 251° |
| 2026-05-06 16:05 | 50.04565 | 8.57297 | 370 ft | 16 kts | 249° |
| 2026-05-06 16:05 | 50.04533 | 8.57159 | 369 ft | 9 kts | 251° |
| 2026-05-06 16:06 | 50.04504 | 8.57038 | 369 ft | 14 kts | 250° |
| 2026-05-06 16:06 | 50.04467 | 8.56885 | 368 ft | 0 kts | 249° |
| 2026-05-06 16:06 | 50.04457 | 8.56848 | 368 ft | 9 kts | 249° |
| 2026-05-06 16:06 | 50.04418 | 8.56685 | 364 ft | 22 kts | 250° |
| 2026-05-06 16:07 | 50.04357 | 8.56429 | 361 ft | 26 kts | 250° |
| 2026-05-06 16:07 | 50.04306 | 8.56214 | 358 ft | 16 kts | 250° |
| 2026-05-06 16:07 | 50.04262 | 8.56031 | 357 ft | 20 kts | 250° |
| 2026-05-06 16:07 | 50.04215 | 8.55833 | 354 ft | 14 kts | 251° |
| 2026-05-06 16:08 | 50.04175 | 8.55660 | 353 ft | 18 kts | 251° |
| 2026-05-06 16:08 | 50.04130 | 8.55474 | 354 ft | 19 kts | 250° |
| 2026-05-06 16:08 | 50.04081 | 8.55269 | 352 ft | 19 kts | 250° |
| 2026-05-06 16:08 | 50.04048 | 8.55132 | 350 ft | 14 kts | 250° |
| 2026-05-06 16:09 | 50.04004 | 8.54952 | 346 ft | 20 kts | 249° |
| 2026-05-06 16:09 | 50.03950 | 8.54734 | 343 ft | 22 kts | 250° |
| 2026-05-06 16:09 | 50.03905 | 8.54539 | 341 ft | 6 kts | 249° |
| 2026-05-06 16:09 | 50.03882 | 8.54446 | 341 ft | 12 kts | 249° |
| 2026-05-06 16:10 | 50.03824 | 8.54286 | 340 ft | 20 kts | 237° |
| 2026-05-06 16:10 | 50.03766 | 8.54081 | 343 ft | 21 kts | 250° |
| 2026-05-06 16:10 | 50.03715 | 8.53864 | 346 ft | 21 kts | 250° |
| 2026-05-06 16:10 | 50.03660 | 8.53640 | 346 ft | 23 kts | 250° |
| 2026-05-06 16:11 | 50.03598 | 8.53390 | 344 ft | 25 kts | 250° |
| 2026-05-06 16:11 | 50.03532 | 8.53111 | 340 ft | 28 kts | 250° |
| 2026-05-06 16:11 | 50.03497 | 8.52964 | 339 ft | 8 kts | 249° |
| 2026-05-06 16:11 | 50.03488 | 8.52929 | 339 ft | 1 kts | 249° |
| 2026-05-06 16:12 | 50.03477 | 8.52887 | 339 ft | 6 kts | 246° |
| 2026-05-06 16:12 | 50.03453 | 8.52804 | 338 ft | 7 kts | 246° |
| 2026-05-06 16:12 | 50.03435 | 8.52739 | 338 ft | 0 kts | 250° |
| 2026-05-06 16:12 | 50.03429 | 8.52715 | 338 ft | 4 kts | 250° |
| 2026-05-06 16:13 | 50.03410 | 8.52652 | 337 ft | 8 kts | 234° |
| 2026-05-06 16:13 | 50.03370 | 8.52606 | 336 ft | 10 kts | 199° |
| 2026-05-06 16:13 | 50.03325 | 8.52595 | 336 ft | 2 kts | 182° |
| 2026-05-06 16:13 | 50.03316 | 8.52594 | 335 ft | 0 kts | 182° |
| 2026-05-06 16:14 | 50.03312 | 8.52594 | 335 ft | 2 kts | 181° |
| 2026-05-06 16:14 | 50.03311 | 8.52594 | 335 ft | 0 kts | 181° |
| 2026-05-06 16:18 | 50.03273 | 8.52593 | 335 ft | 28 kts | 181° |
| 2026-05-06 16:18 | 50.02710 | 8.52600 | 326 ft | 128 kts | 179° |
| 2026-05-06 16:18 | 50.01666 | 8.52624 | 554 ft | 159 kts | 179° |
| 2026-05-06 16:18 | 50.00510 | 8.52628 | 1032 ft | 181 kts | 181° |
| 2026-05-06 16:19 | 49.99243 | 8.52625 | 1671 ft | 179 kts | 180° |
| 2026-05-06 16:19 | 49.97998 | 8.52628 | 2374 ft | 183 kts | 180° |
| 2026-05-06 16:19 | 49.96765 | 8.53111 | 3086 ft | 188 kts | 148° |
| 2026-05-06 16:19 | 49.95924 | 8.54608 | 3816 ft | 191 kts | 120° |
| 2026-05-06 16:20 | 49.95289 | 8.56404 | 4582 ft | 193 kts | 119° |
| 2026-05-06 16:20 | 49.94595 | 8.58336 | 5015 ft | 215 kts | 120° |
| 2026-05-06 16:20 | 49.94034 | 8.60590 | 5091 ft | 234 kts | 97° |
| 2026-05-06 16:20 | 49.93923 | 8.63142 | 5100 ft | 245 kts | 93° |
| 2026-05-06 16:21 | 49.93831 | 8.65819 | 5105 ft | 250 kts | 94° |
| 2026-05-06 16:21 | 49.93543 | 8.68573 | 5184 ft | 271 kts | 112° |
| 2026-05-06 16:21 | 49.92429 | 8.70917 | 6408 ft | 279 kts | 140° |
| 2026-05-06 16:21 | 49.90933 | 8.72649 | 8077 ft | 272 kts | 145° |
| 2026-05-06 16:22 | 49.89420 | 8.74317 | 9485 ft | 275 kts | 144° |
| 2026-05-06 16:22 | 49.88070 | 8.76415 | 10410 ft | 285 kts | 123° |
| 2026-05-06 16:22 | 49.87079 | 8.79083 | 10845 ft | 286 kts | 118° |
| 2026-05-06 16:22 | 49.86108 | 8.81812 | 10982 ft | 296 kts | 119° |
| 2026-05-06 16:23 | 49.85064 | 8.84719 | 11581 ft | 316 kts | 119° |
| 2026-05-06 16:23 | 49.84021 | 8.87619 | 12986 ft | 313 kts | 119° |
| 2026-05-06 16:23 | 49.82943 | 8.90609 | 13926 ft | 320 kts | 119° |
| 2026-05-06 16:23 | 49.81867 | 8.93586 | 14568 ft | 322 kts | 119° |
| 2026-05-06 16:24 | 49.80769 | 8.96617 | 15081 ft | 324 kts | 119° |
| 2026-05-06 16:24 | 49.79642 | 8.99722 | 15617 ft | 338 kts | 119° |
| 2026-05-06 16:24 | 49.78470 | 9.02947 | 16213 ft | 349 kts | 119° |
| 2026-05-06 16:24 | 49.77259 | 9.06272 | 16849 ft | 355 kts | 119° |
| 2026-05-06 16:25 | 49.76156 | 9.09657 | 17485 ft | 358 kts | 109° |
| 2026-05-06 16:25 | 49.75503 | 9.13410 | 18132 ft | 362 kts | 103° |
| 2026-05-06 16:25 | 49.74860 | 9.17167 | 18789 ft | 365 kts | 109° |
| 2026-05-06 16:25 | 49.73628 | 9.20614 | 19439 ft | 369 kts | 128° |
| 2026-05-06 16:26 | 49.72206 | 9.23179 | 20005 ft | 373 kts | 131° |
| 2026-05-06 16:26 | 49.71129 | 9.25074 | 20436 ft | 375 kts | 131° |
| 2026-05-06 16:26 | 49.69410 | 9.28113 | 21128 ft | 378 kts | 131° |
| 2026-05-06 16:26 | 49.67679 | 9.31172 | 21826 ft | 382 kts | 131° |
| 2026-05-06 16:27 | 49.65927 | 9.34263 | 22532 ft | 385 kts | 131° |
| 2026-05-06 16:27 | 49.64163 | 9.37372 | 23243 ft | 388 kts | 131° |
| 2026-05-06 16:27 | 49.62363 | 9.40480 | 23957 ft | 390 kts | 134° |
| 2026-05-06 16:27 | 49.60193 | 9.43004 | 24652 ft | 392 kts | 148° |
| 2026-05-06 16:28 | 49.57872 | 9.45114 | 25349 ft | 393 kts | 149° |
| 2026-05-06 16:28 | 49.55504 | 9.47277 | 26056 ft | 393 kts | 149° |
| 2026-05-06 16:28 | 49.53149 | 9.49427 | 26748 ft | 393 kts | 149° |
| 2026-05-06 16:28 | 49.50831 | 9.51543 | 27416 ft | 392 kts | 149° |
| 2026-05-06 16:29 | 49.48472 | 9.53693 | 28082 ft | 391 kts | 149° |
| 2026-05-06 16:29 | 49.46152 | 9.55805 | 28722 ft | 390 kts | 149° |
| 2026-05-06 16:29 | 49.43810 | 9.57935 | 29351 ft | 389 kts | 149° |
| 2026-05-06 16:29 | 49.41470 | 9.60063 | 29963 ft | 388 kts | 149° |
| 2026-05-06 16:30 | 49.39165 | 9.62155 | 30548 ft | 387 kts | 149° |
| 2026-05-06 16:30 | 49.37601 | 9.63574 | 30935 ft | 387 kts | 149° |
| 2026-05-06 16:30 | 49.34536 | 9.66387 | 31673 ft | 385 kts | 146° |
| 2026-05-06 16:30 | 49.32501 | 9.68957 | 32187 ft | 384 kts | 136° |
| 2026-05-06 16:31 | 49.30592 | 9.71893 | 32200 ft | 398 kts | 135° |
| 2026-05-06 16:31 | 49.28606 | 9.74955 | 32132 ft | 412 kts | 135° |
| 2026-05-06 16:31 | 49.24467 | 9.81303 | 32286 ft | 430 kts | 135° |
| 2026-05-06 16:32 | 49.22315 | 9.84594 | 32405 ft | 437 kts | 135° |
| 2026-05-06 16:32 | 49.20142 | 9.87909 | 32541 ft | 443 kts | 135° |
| 2026-05-06 16:32 | 49.17947 | 9.91253 | 32690 ft | 449 kts | 135° |
| 2026-05-06 16:32 | 49.15722 | 9.94635 | 32851 ft | 453 kts | 135° |
| 2026-05-06 16:33 | 49.13467 | 9.98057 | 33020 ft | 456 kts | 135° |
| 2026-05-06 16:33 | 49.11212 | 10.01474 | 33193 ft | 458 kts | 135° |
| 2026-05-06 16:33 | 49.08956 | 10.04886 | 33367 ft | 460 kts | 135° |
| 2026-05-06 16:34 | 49.04355 | 10.11668 | 33718 ft | 462 kts | 137° |
| 2026-05-06 16:34 | 49.01997 | 10.15006 | 33893 ft | 463 kts | 137° |
| 2026-05-06 16:34 | 48.99638 | 10.18344 | 34067 ft | 463 kts | 137° |
| 2026-05-06 16:34 | 48.97268 | 10.21694 | 34240 ft | 463 kts | 137° |
| 2026-05-06 16:35 | 48.94890 | 10.25050 | 34410 ft | 463 kts | 137° |
| 2026-05-06 16:35 | 48.92552 | 10.28354 | 34574 ft | 463 kts | 137° |
| 2026-05-06 16:35 | 48.90199 | 10.31674 | 34735 ft | 462 kts | 137° |
| 2026-05-06 16:35 | 48.87949 | 10.34845 | 34885 ft | 462 kts | 137° |
| 2026-05-06 16:36 | 48.85554 | 10.38217 | 35041 ft | 462 kts | 137° |
| 2026-05-06 16:36 | 48.83202 | 10.41534 | 35190 ft | 461 kts | 136° |
| 2026-05-06 16:36 | 48.80951 | 10.45014 | 35333 ft | 461 kts | 133° |
| 2026-05-06 16:36 | 48.78753 | 10.48554 | 35473 ft | 461 kts | 133° |
| 2026-05-06 16:37 | 48.76569 | 10.52057 | 35609 ft | 460 kts | 133° |
| 2026-05-06 16:37 | 48.74346 | 10.55620 | 35744 ft | 460 kts | 133° |
| 2026-05-06 16:37 | 48.72141 | 10.59145 | 35874 ft | 460 kts | 133° |
| 2026-05-06 16:37 | 48.69953 | 10.62639 | 35999 ft | 460 kts | 133° |
| 2026-05-06 16:38 | 48.67768 | 10.66120 | 36124 ft | 459 kts | 134° |
| 2026-05-06 16:38 | 48.65567 | 10.69625 | 36250 ft | 459 kts | 134° |
| 2026-05-06 16:38 | 48.63363 | 10.73128 | 36356 ft | 459 kts | 134° |
| 2026-05-06 16:38 | 48.61169 | 10.76609 | 36460 ft | 459 kts | 134° |
| 2026-05-06 16:39 | 48.58957 | 10.80116 | 36567 ft | 458 kts | 134° |
| 2026-05-06 16:39 | 48.56758 | 10.83631 | 36670 ft | 458 kts | 133° |
| 2026-05-06 16:39 | 48.54593 | 10.87098 | 36768 ft | 458 kts | 133° |
| 2026-05-06 16:40 | 48.50191 | 10.94130 | 36958 ft | 458 kts | 133° |
| 2026-05-06 16:40 | 48.45786 | 11.01054 | 37136 ft | 458 kts | 134° |
| 2026-05-06 16:41 | 48.41358 | 11.07954 | 37304 ft | 458 kts | 134° |
| 2026-05-06 16:41 | 48.36929 | 11.14838 | 37462 ft | 458 kts | 134° |
| 2026-05-06 16:42 | 48.32487 | 11.21724 | 37611 ft | 458 kts | 134° |
| 2026-05-06 16:42 | 48.28035 | 11.28624 | 37751 ft | 458 kts | 133° |
| 2026-05-06 16:43 | 48.24335 | 11.36391 | 37869 ft | 458 kts | 120° |
| 2026-05-06 16:43 | 48.21160 | 11.44638 | 37993 ft | 458 kts | 120° |
| 2026-05-06 16:44 | 48.17963 | 11.52900 | 38113 ft | 459 kts | 120° |
| 2026-05-06 16:44 | 48.14758 | 11.61157 | 38226 ft | 459 kts | 120° |
| 2026-05-06 16:45 | 48.11543 | 11.69411 | 38333 ft | 459 kts | 120° |
| 2026-05-06 16:45 | 48.08336 | 11.77618 | 38433 ft | 459 kts | 120° |
| 2026-05-06 16:46 | 48.05103 | 11.85866 | 38527 ft | 458 kts | 120° |
| 2026-05-06 16:46 | 48.01867 | 11.94095 | 38616 ft | 458 kts | 120° |
| 2026-05-06 16:47 | 47.98632 | 12.02297 | 38699 ft | 458 kts | 120° |
| 2026-05-06 16:47 | 47.95396 | 12.10460 | 38776 ft | 458 kts | 121° |
| 2026-05-06 16:48 | 47.91421 | 12.17869 | 38836 ft | 458 kts | 136° |
| 2026-05-06 16:48 | 47.86592 | 12.24029 | 38897 ft | 458 kts | 140° |
| 2026-05-06 16:49 | 47.81735 | 12.30108 | 38964 ft | 459 kts | 140° |
| 2026-05-06 16:49 | 47.76857 | 12.36198 | 38998 ft | 459 kts | 140° |
| 2026-05-06 16:50 | 47.71946 | 12.42311 | 39001 ft | 459 kts | 140° |
| 2026-05-06 16:50 | 47.67048 | 12.48394 | 39001 ft | 459 kts | 140° |
| 2026-05-06 16:51 | 47.62157 | 12.54445 | 39001 ft | 459 kts | 140° |
| 2026-05-06 16:51 | 47.57245 | 12.60403 | 39001 ft | 458 kts | 140° |
| 2026-05-06 16:52 | 47.52902 | 12.65653 | 39001 ft | 458 kts | 141° |
| 2026-05-06 16:52 | 47.47502 | 12.72166 | 39001 ft | 458 kts | 141° |
| 2026-05-06 16:53 | 47.42407 | 12.78294 | 39001 ft | 458 kts | 141° |
| 2026-05-06 16:53 | 47.37476 | 12.84211 | 39001 ft | 458 kts | 141° |
| 2026-05-06 16:54 | 47.32484 | 12.90187 | 39001 ft | 458 kts | 141° |
| 2026-05-06 16:54 | 47.27526 | 12.96105 | 39001 ft | 458 kts | 141° |
| 2026-05-06 16:55 | 47.22554 | 13.02028 | 39001 ft | 458 kts | 141° |
| 2026-05-06 16:55 | 47.17563 | 13.07956 | 39001 ft | 459 kts | 141° |
| 2026-05-06 16:56 | 47.12586 | 13.13855 | 39000 ft | 459 kts | 141° |
| 2026-05-06 16:56 | 47.07615 | 13.19731 | 39000 ft | 459 kts | 141° |
| 2026-05-06 16:57 | 47.02624 | 13.25617 | 39000 ft | 459 kts | 141° |
| 2026-05-06 16:57 | 46.97658 | 13.31458 | 39000 ft | 459 kts | 141° |
| 2026-05-06 16:58 | 46.92635 | 13.37353 | 39000 ft | 459 kts | 141° |
| 2026-05-06 16:58 | 46.87712 | 13.43115 | 39001 ft | 459 kts | 141° |
| 2026-05-06 16:59 | 46.82775 | 13.48880 | 39001 ft | 459 kts | 141° |
| 2026-05-06 16:59 | 46.77828 | 13.54643 | 39001 ft | 459 kts | 141° |
| 2026-05-06 17:00 | 46.72833 | 13.60448 | 39001 ft | 459 kts | 141° |
| 2026-05-06 17:00 | 46.67829 | 13.66248 | 39001 ft | 459 kts | 142° |
| 2026-05-06 17:01 | 46.62893 | 13.71957 | 39002 ft | 459 kts | 142° |
| 2026-05-06 17:01 | 46.57887 | 13.77733 | 39001 ft | 459 kts | 142° |
| 2026-05-06 17:02 | 46.52900 | 13.83472 | 39001 ft | 459 kts | 142° |
| 2026-05-06 17:02 | 46.47857 | 13.89261 | 39001 ft | 459 kts | 142° |
| 2026-05-06 17:03 | 46.42836 | 13.95013 | 39001 ft | 459 kts | 142° |
| 2026-05-06 17:03 | 46.37862 | 14.00695 | 39001 ft | 459 kts | 142° |
| 2026-05-06 17:04 | 46.32810 | 14.06454 | 39001 ft | 459 kts | 142° |
| 2026-05-06 17:04 | 46.27774 | 14.12180 | 39002 ft | 459 kts | 142° |
| 2026-05-06 17:05 | 46.22748 | 14.17882 | 39002 ft | 459 kts | 142° |
| 2026-05-06 17:05 | 46.17712 | 14.23581 | 39002 ft | 459 kts | 142° |
| 2026-05-06 17:06 | 46.12691 | 14.29250 | 39002 ft | 459 kts | 142° |
| 2026-05-06 17:06 | 46.07629 | 14.34950 | 39002 ft | 459 kts | 142° |
| 2026-05-06 17:07 | 46.02625 | 14.40640 | 39002 ft | 459 kts | 141° |
| 2026-05-06 17:07 | 45.97587 | 14.46400 | 39002 ft | 459 kts | 141° |
| 2026-05-06 17:08 | 45.92542 | 14.52153 | 39002 ft | 459 kts | 141° |
| 2026-05-06 17:08 | 45.87589 | 14.57788 | 39002 ft | 459 kts | 141° |
| 2026-05-06 17:09 | 45.82610 | 14.63439 | 39002 ft | 459 kts | 141° |
| 2026-05-06 17:09 | 45.77680 | 14.69021 | 39002 ft | 459 kts | 142° |
| 2026-05-06 17:10 | 45.72671 | 14.74679 | 39002 ft | 459 kts | 142° |
| 2026-05-06 17:10 | 45.67666 | 14.80319 | 39002 ft | 459 kts | 142° |
| 2026-05-06 17:11 | 45.62650 | 14.85958 | 39002 ft | 459 kts | 142° |
| 2026-05-06 17:11 | 45.57623 | 14.91597 | 39002 ft | 459 kts | 142° |
| 2026-05-06 17:12 | 45.52570 | 14.97251 | 39002 ft | 459 kts | 142° |
| 2026-05-06 17:12 | 45.47517 | 15.03045 | 39002 ft | 459 kts | 140° |
| 2026-05-06 17:13 | 45.42607 | 15.08941 | 39002 ft | 459 kts | 140° |
| 2026-05-06 17:13 | 45.37676 | 15.14844 | 39002 ft | 459 kts | 140° |
| 2026-05-06 17:14 | 45.32760 | 15.20715 | 39002 ft | 459 kts | 140° |
| 2026-05-06 17:14 | 45.27837 | 15.26579 | 39002 ft | 459 kts | 140° |
| 2026-05-06 17:15 | 45.22895 | 15.32453 | 39003 ft | 459 kts | 140° |
| 2026-05-06 17:15 | 45.17959 | 15.38305 | 39002 ft | 459 kts | 140° |
| 2026-05-06 17:16 | 45.13036 | 15.44128 | 39002 ft | 459 kts | 140° |
| 2026-05-06 17:16 | 45.08096 | 15.49957 | 39002 ft | 459 kts | 140° |
| 2026-05-06 17:17 | 45.03125 | 15.55809 | 39002 ft | 459 kts | 140° |
| 2026-05-06 17:17 | 44.98193 | 15.61603 | 39002 ft | 459 kts | 140° |
| 2026-05-06 17:18 | 44.93278 | 15.67362 | 39002 ft | 459 kts | 140° |
| 2026-05-06 17:18 | 44.88454 | 15.73002 | 39002 ft | 459 kts | 140° |
| 2026-05-06 17:19 | 44.83476 | 15.78809 | 39002 ft | 459 kts | 140° |
| 2026-05-06 17:19 | 44.78552 | 15.84539 | 39002 ft | 459 kts | 140° |
| 2026-05-06 17:20 | 44.73637 | 15.90246 | 39002 ft | 459 kts | 140° |
| 2026-05-06 17:20 | 44.68677 | 15.95966 | 39002 ft | 459 kts | 142° |
| 2026-05-06 17:21 | 44.63246 | 16.00667 | 38999 ft | 458 kts | 150° |
| 2026-05-06 17:21 | 44.57700 | 16.05081 | 39002 ft | 459 kts | 150° |
| 2026-05-06 17:22 | 44.52093 | 16.09539 | 39002 ft | 459 kts | 150° |
| 2026-05-06 17:22 | 44.46476 | 16.13997 | 39001 ft | 459 kts | 150° |
| 2026-05-06 17:23 | 44.40883 | 16.18428 | 39001 ft | 459 kts | 150° |
| 2026-05-06 17:23 | 44.35266 | 16.22869 | 39001 ft | 459 kts | 150° |
| 2026-05-06 17:24 | 44.29650 | 16.27301 | 39001 ft | 459 kts | 150° |
| 2026-05-06 17:24 | 44.24057 | 16.31705 | 39001 ft | 459 kts | 150° |
| 2026-05-06 17:25 | 44.18530 | 16.36049 | 39002 ft | 448 kts | 150° |
| 2026-05-06 17:25 | 44.13102 | 16.40305 | 39001 ft | 438 kts | 150° |
| 2026-05-06 17:26 | 44.07749 | 16.44494 | 38810 ft | 440 kts | 150° |
| 2026-05-06 17:26 | 44.05053 | 16.46601 | 38278 ft | 442 kts | 150° |
| 2026-05-06 17:26 | 44.02318 | 16.48685 | 37720 ft | 440 kts | 153° |
| 2026-05-06 17:26 | 43.99580 | 16.50547 | 37150 ft | 438 kts | 154° |
| 2026-05-06 17:27 | 43.96882 | 16.52351 | 36584 ft | 436 kts | 154° |
| 2026-05-06 17:27 | 43.94125 | 16.54196 | 35987 ft | 435 kts | 154° |
| 2026-05-06 17:27 | 43.91378 | 16.56035 | 35427 ft | 435 kts | 154° |
| 2026-05-06 17:27 | 43.88658 | 16.57853 | 34841 ft | 436 kts | 154° |
| 2026-05-06 17:28 | 43.85928 | 16.59677 | 34266 ft | 437 kts | 154° |
| 2026-05-06 17:28 | 43.83168 | 16.61519 | 33683 ft | 438 kts | 154° |
| 2026-05-06 17:28 | 43.80450 | 16.63332 | 33105 ft | 438 kts | 154° |
| 2026-05-06 17:28 | 43.77691 | 16.65170 | 32521 ft | 435 kts | 154° |
| 2026-05-06 17:29 | 43.75007 | 16.66957 | 31952 ft | 431 kts | 154° |
| 2026-05-06 17:29 | 43.72304 | 16.68755 | 31379 ft | 427 kts | 154° |
| 2026-05-06 17:29 | 43.69626 | 16.70534 | 30812 ft | 423 kts | 154° |
| 2026-05-06 17:29 | 43.66985 | 16.72288 | 30252 ft | 420 kts | 154° |
| 2026-05-06 17:30 | 43.64333 | 16.74047 | 29689 ft | 416 kts | 154° |
| 2026-05-06 17:30 | 43.61757 | 16.75754 | 29144 ft | 412 kts | 154° |
| 2026-05-06 17:30 | 43.59155 | 16.77477 | 28592 ft | 408 kts | 154° |
| 2026-05-06 17:30 | 43.56612 | 16.79160 | 28056 ft | 404 kts | 154° |
| 2026-05-06 17:31 | 43.54080 | 16.80833 | 27517 ft | 401 kts | 154° |
| 2026-05-06 17:31 | 43.51600 | 16.82471 | 26994 ft | 397 kts | 154° |
| 2026-05-06 17:31 | 43.49128 | 16.84102 | 26470 ft | 393 kts | 154° |
| 2026-05-06 17:31 | 43.46654 | 16.85733 | 25947 ft | 389 kts | 154° |
| 2026-05-06 17:32 | 43.44235 | 16.87327 | 25435 ft | 385 kts | 154° |
| 2026-05-06 17:32 | 43.41814 | 16.88920 | 24923 ft | 382 kts | 154° |
| 2026-05-06 17:32 | 43.39418 | 16.90496 | 24417 ft | 378 kts | 154° |
| 2026-05-06 17:32 | 43.37062 | 16.92043 | 23918 ft | 374 kts | 154° |
| 2026-05-06 17:33 | 43.34721 | 16.93580 | 23423 ft | 371 kts | 154° |
| 2026-05-06 17:33 | 43.32366 | 16.95125 | 22927 ft | 369 kts | 154° |
| 2026-05-06 17:33 | 43.30056 | 16.96639 | 22438 ft | 368 kts | 154° |
| 2026-05-06 17:33 | 43.27728 | 16.98163 | 21945 ft | 366 kts | 154° |
| 2026-05-06 17:34 | 43.25435 | 16.99664 | 21461 ft | 363 kts | 154° |
| 2026-05-06 17:34 | 43.23148 | 17.01158 | 20978 ft | 361 kts | 154° |
| 2026-05-06 17:34 | 43.20863 | 17.02651 | 20494 ft | 358 kts | 154° |
| 2026-05-06 17:34 | 43.18626 | 17.04111 | 20019 ft | 355 kts | 154° |
| 2026-05-06 17:35 | 43.16365 | 17.05585 | 19538 ft | 353 kts | 154° |
| 2026-05-06 17:35 | 43.14241 | 17.07213 | 19062 ft | 350 kts | 143° |
| 2026-05-06 17:35 | 43.12579 | 17.09584 | 18572 ft | 346 kts | 125° |
| 2026-05-06 17:36 | 43.09914 | 17.15027 | 17630 ft | 342 kts | 123° |
| 2026-05-06 17:36 | 43.08580 | 17.17746 | 17163 ft | 340 kts | 123° |
| 2026-05-06 17:36 | 43.07276 | 17.20404 | 16707 ft | 338 kts | 123° |
| 2026-05-06 17:36 | 43.05967 | 17.23070 | 16249 ft | 335 kts | 123° |
| 2026-05-06 17:37 | 43.04665 | 17.25717 | 15794 ft | 333 kts | 123° |
| 2026-05-06 17:37 | 43.03377 | 17.28334 | 15343 ft | 331 kts | 123° |
| 2026-05-06 17:37 | 43.02077 | 17.30976 | 14887 ft | 329 kts | 123° |
| 2026-05-06 17:37 | 43.00815 | 17.33535 | 14444 ft | 326 kts | 123° |
| 2026-05-06 17:38 | 42.99545 | 17.36109 | 13998 ft | 324 kts | 123° |
| 2026-05-06 17:38 | 42.98279 | 17.38676 | 13552 ft | 322 kts | 123° |
| 2026-05-06 17:38 | 42.97014 | 17.41235 | 13107 ft | 320 kts | 123° |
| 2026-05-06 17:38 | 42.95781 | 17.43729 | 12673 ft | 318 kts | 123° |
| 2026-05-06 17:39 | 42.94543 | 17.46232 | 12237 ft | 316 kts | 123° |
| 2026-05-06 17:39 | 42.93308 | 17.48725 | 11800 ft | 312 kts | 123° |
| 2026-05-06 17:39 | 42.92098 | 17.51167 | 11364 ft | 307 kts | 123° |
| 2026-05-06 17:39 | 42.90905 | 17.53571 | 10927 ft | 304 kts | 124° |
| 2026-05-06 17:40 | 42.89567 | 17.55759 | 10486 ft | 300 kts | 134° |
| 2026-05-06 17:40 | 42.88087 | 17.57805 | 10042 ft | 297 kts | 134° |
| 2026-05-06 17:40 | 42.86655 | 17.59792 | 9579 ft | 292 kts | 134° |
| 2026-05-06 17:40 | 42.85229 | 17.61771 | 9087 ft | 287 kts | 134° |
| 2026-05-06 17:41 | 42.83827 | 17.63716 | 8594 ft | 283 kts | 134° |
| 2026-05-06 17:41 | 42.82479 | 17.65586 | 8098 ft | 278 kts | 134° |
| 2026-05-06 17:41 | 42.81124 | 17.67464 | 7581 ft | 273 kts | 134° |
| 2026-05-06 17:41 | 42.79795 | 17.69308 | 7064 ft | 269 kts | 134° |
| 2026-05-06 17:42 | 42.78482 | 17.71128 | 6545 ft | 266 kts | 134° |
| 2026-05-06 17:42 | 42.77286 | 17.73022 | 6024 ft | 262 kts | 122° |
| 2026-05-06 17:42 | 42.76418 | 17.75178 | 5508 ft | 259 kts | 118° |
| 2026-05-06 17:42 | 42.75567 | 17.77327 | 5081 ft | 251 kts | 118° |
| 2026-05-06 17:43 | 42.74800 | 17.79329 | 4983 ft | 226 kts | 118° |
| 2026-05-06 17:43 | 42.74097 | 17.81113 | 4975 ft | 198 kts | 118° |
| 2026-05-06 17:43 | 42.73465 | 17.82748 | 4988 ft | 197 kts | 118° |
| 2026-05-06 17:43 | 42.72821 | 17.84397 | 4962 ft | 195 kts | 118° |
| 2026-05-06 17:44 | 42.72171 | 17.86060 | 4958 ft | 195 kts | 118° |
| 2026-05-06 17:44 | 42.71534 | 17.87694 | 4955 ft | 195 kts | 118° |
| 2026-05-06 17:44 | 42.70894 | 17.89332 | 4954 ft | 195 kts | 118° |
| 2026-05-06 17:44 | 42.70262 | 17.90949 | 4954 ft | 195 kts | 118° |
| 2026-05-06 17:45 | 42.69622 | 17.92581 | 4954 ft | 195 kts | 118° |
| 2026-05-06 17:45 | 42.68980 | 17.94222 | 4954 ft | 195 kts | 118° |
| 2026-05-06 17:45 | 42.68336 | 17.95864 | 4954 ft | 195 kts | 118° |
| 2026-05-06 17:45 | 42.67693 | 17.97502 | 4925 ft | 197 kts | 118° |
| 2026-05-06 17:46 | 42.67046 | 17.99151 | 4646 ft | 196 kts | 118° |
| 2026-05-06 17:46 | 42.66405 | 18.00783 | 4420 ft | 195 kts | 118° |
| 2026-05-06 17:46 | 42.65771 | 18.02399 | 4145 ft | 193 kts | 118° |
| 2026-05-06 17:46 | 42.65139 | 18.04007 | 3883 ft | 193 kts | 118° |
| 2026-05-06 17:47 | 42.64512 | 18.05603 | 3633 ft | 191 kts | 118° |
| 2026-05-06 17:47 | 42.63886 | 18.07193 | 3380 ft | 187 kts | 118° |
| 2026-05-06 17:47 | 42.63274 | 18.08748 | 3129 ft | 188 kts | 118° |
| 2026-05-06 17:47 | 42.62656 | 18.10318 | 2879 ft | 187 kts | 118° |
| 2026-05-06 17:48 | 42.62037 | 18.11887 | 2629 ft | 187 kts | 118° |
| 2026-05-06 17:48 | 42.61421 | 18.13450 | 2379 ft | 186 kts | 118° |
| 2026-05-06 17:48 | 42.60818 | 18.14978 | 2143 ft | 175 kts | 118° |
| 2026-05-06 17:48 | 42.60294 | 18.16305 | 1923 ft | 144 kts | 118° |
| 2026-05-06 17:49 | 42.59833 | 18.17474 | 1741 ft | 139 kts | 118° |
| 2026-05-06 17:49 | 42.59372 | 18.18643 | 1532 ft | 137 kts | 118° |
| 2026-05-06 17:49 | 42.58914 | 18.19800 | 1367 ft | 141 kts | 118° |
| 2026-05-06 17:49 | 42.58437 | 18.21008 | 1164 ft | 147 kts | 118° |
| 2026-05-06 17:50 | 42.57956 | 18.22223 | 983 ft | 142 kts | 118° |
| 2026-05-06 17:50 | 42.57499 | 18.23378 | 803 ft | 134 kts | 118° |
| 2026-05-06 17:50 | 42.57068 | 18.24485 | 563 ft | 132 kts | 120° |
| 2026-05-06 17:50 | 42.56652 | 18.25510 | 517 ft | 110 kts | 118° |
| 2026-05-06 17:51 | 42.56415 | 18.26106 | 523 ft | 35 kts | 133° |
| 2026-05-06 17:51 | 42.56301 | 18.26198 | 522 ft | 20 kts | 153° |
| 2026-05-06 17:51 | 42.56205 | 18.26263 | 520 ft | 16 kts | 152° |
| 2026-05-06 17:51 | 42.56126 | 18.26375 | 518 ft | 20 kts | 117° |
| 2026-05-06 17:52 | 42.56078 | 18.26490 | 515 ft | 6 kts | 138° |
| 2026-05-06 17:52 | 42.56037 | 18.26476 | 514 ft | 5 kts | 207° |
| 2026-05-06 17:52 | 42.56020 | 18.26464 | 514 ft | 0 kts | 209° |
| 2026-05-06 17:52 | 42.56020 | 18.26463 | 514 ft | 0 kts | 209° |